MDT,Max TemperatureF,Mean TemperatureF,Min TemperatureF,Max Dew PointF,MeanDew PointF,Min DewpointF,Max Humidity, Mean Humidity, Min Humidity, Max Sea Level PressureIn, Mean Sea Level PressureIn, Min Sea Level PressureIn, Max VisibilityMiles, Mean VisibilityMiles, Min VisibilityMiles, Max Wind SpeedMPH, Mean Wind SpeedMPH, Max Gust SpeedMPH,PrecipitationIn, CloudCover, Events, WindDirDegrees
2013-10-1,71,52,33,37,34,28,92,59,25,30.02,29.89,29.80,10,10,10,22,8,28,0.00,0,,194
2013-10-2,58,49,40,39,34,30,73,58,43,30.09,29.97,29.82,10,10,10,20,10,23,0.01,2,Rain,10
2013-10-3,46,39,32,42,39,37,100,90,81,30.12,29.97,29.89,10,8,1,20,12,24,1.17,8,Rain-Snow,45
2013-10-4,32,30,28,30,29,28,100,96,92,30.35,30.22,30.10,10,1,0,28,22,36,0.55,8,Fog-Snow,334
2013-10-5,39,31,23,29,26,20,78,71,64,30.33,30.28,30.23,10,10,10,23,13,29,0.00,2,,295
2013-10-6,48,41,33,35,31,27,75,69,62,30.26,30.20,30.10,10,10,10,21,13,24,0.00,0,,245
2013-10-7,59,47,34,39,34,30,65,53,40,30.10,29.88,29.65,10,10,10,36,17,43,0.00,0,,215
2013-10-8,63,52,41,41,37,33,76,58,40,29.86,29.72,29.62,10,10,10,29,8,37,0.00,0,,19
2013-10-9,54,45,36,41,36,33,92,73,54,30.03,29.98,29.86,10,10,10,12,5,14,T,3,,56
2013-10-10,57,48,38,45,40,33,86,74,62,29.91,29.70,29.53,10,10,10,24,12,30,0.00,2,,163
2013-10-11,47,40,32,43,36,32,96,81,65,30.07,29.77,29.53,10,9,4,43,23,55,0.19,7,Rain-Snow,313
2013-10-12,53,41,28,34,32,27,96,71,46,30.19,30.13,30.08,10,10,10,15,6,23,0.00,0,,174
2013-10-13,55,43,31,43,38,31,100,82,63,30.17,30.08,29.97,10,8,2,15,6,18,0.41,4,Rain,75
2013-10-14,42,37,31,43,37,33,92,92,92,30.36,30.12,29.93,10,5,2,32,20,40,0.15,8,Rain-Snow,327
2013-10-15,45,38,30,30,28,26,92,71,49,30.38,30.31,30.18,10,8,2,22,11,29,0.02,5,Snow,298
2013-10-16,53,42,30,33,27,23,85,59,33,30.17,30.07,29.98,10,10,10,26,11,31,0.00,2,,275
2013-10-17,43,36,28,32,28,23,92,72,51,30.21,30.14,30.07,10,10,2,22,10,25,T,7,Snow,323
2013-10-18,43,37,31,30,29,25,92,73,54,30.25,30.12,30.00,10,6,1,25,14,31,0.04,8,Snow,298
2013-10-19,58,48,38,33,28,25,60,47,33,29.99,29.90,29.84,10,10,10,24,15,30,T,2,,280
2013-10-20,44,40,35,37,35,33,92,83,73,30.12,30.01,29.87,10,9,4,29,13,33,0.05,7,Rain,314
2013-10-21,52,45,37,37,36,34,85,70,54,30.10,30.05,30.01,10,10,5,22,11,28,0.03,8,Rain,289
2013-10-22,58,49,40,38,37,36,82,65,47,30.12,30.08,30.05,10,10,10,15,9,18,0.00,3,,289
2013-10-23,54,45,36,39,37,34,92,73,54,30.27,30.16,30.04,10,10,10,18,9,23,0.00,2,,323
2013-10-24,57,44,31,37,35,29,96,74,51,30.31,30.24,30.16,10,10,10,13,2,14,0.00,2,,174
2013-10-25,65,48,30,38,35,29,92,61,30,30.27,30.14,30.07,10,10,10,23,7,29,0.00,0,,296
2013-10-26,64,47,30,36,30,27,92,59,26,30.29,30.18,29.99,10,10,10,18,5,21,0.00,0,,225
2013-10-27,63,46,29,36,29,25,89,56,23,29.99,29.89,29.75,10,10,10,16,5,18,0.00,0,,53
2013-10-28,34,31,27,31,28,24,92,85,78,30.22,30.13,30.01,10,6,0,22,10,26,0.13,8,Fog-Snow,102
2013-10-29,34,30,26,30,26,23,92,85,78,30.17,30.05,29.92,10,10,10,23,12,26,0.00,8,,160
2013-10-30,48,40,32,33,31,28,92,75,58,29.92,29.83,29.76,10,9,6,20,8,25,0.00,5,,227
2013-10-31,51,42,32,36,31,26,82,65,48,29.87,29.79,29.70,10,10,10,29,14,39,T,5,Rain,289